createdAt,value
2018-06-17T00:01:53.531Z,17.20
2018-06-17T00:03:57.028Z,17.20
2018-06-17T00:06:00.648Z,17.30
2018-06-17T00:08:04.291Z,17.40
2018-06-17T00:10:07.864Z,17.40
2018-06-17T00:12:11.359Z,17.50
2018-06-17T00:14:14.855Z,17.50
2018-06-17T00:16:18.382Z,17.60
2018-06-17T00:18:21.868Z,17.60
2018-06-17T00:20:25.491Z,17.50
2018-06-17T00:22:28.978Z,17.50
2018-06-17T00:24:32.587Z,17.50
2018-06-17T00:26:36.079Z,17.40
2018-06-17T00:28:39.585Z,17.30
2018-06-17T00:30:43.126Z,17.30
2018-06-17T00:32:46.663Z,17.30
2018-06-17T00:34:50.167Z,17.30
2018-06-17T00:36:53.772Z,17.40
2018-06-17T00:38:57.241Z,17.40
2018-06-17T00:41:00.884Z,17.50
2018-06-17T00:43:04.371Z,17.50
2018-06-17T00:45:08.019Z,17.50
2018-06-17T00:47:11.540Z,17.50
2018-06-17T00:49:15.050Z,17.60
2018-06-17T00:53:21.792Z,17.50
2018-06-17T00:55:25.312Z,17.50
2018-06-17T00:57:53.346Z,17.50
2018-06-17T01:00:03.780Z,17.50
2018-06-17T01:02:07.384Z,17.60
2018-06-17T01:04:10.848Z,17.50
2018-06-17T01:06:14.394Z,17.50
2018-06-17T01:08:17.867Z,17.50
2018-06-17T01:10:21.358Z,17.40
2018-06-17T01:12:24.870Z,17.30
2018-06-17T01:14:28.401Z,17.20
2018-06-17T01:16:31.871Z,17.20
2018-06-17T01:18:35.385Z,17.20
2018-06-17T01:20:38.970Z,17.10
2018-06-17T01:22:42.415Z,17.20
2018-06-17T01:26:49.248Z,17.20
2018-06-17T01:28:53.000Z,17.20
2018-06-17T01:32:59.668Z,17.10
2018-06-17T01:35:03.190Z,17.00
2018-06-17T01:37:06.831Z,17.00
2018-06-17T01:39:10.543Z,17.00
2018-06-17T01:41:14.090Z,17.10
2018-06-17T01:43:17.575Z,17.10
2018-06-17T01:45:21.091Z,17.10
2018-06-17T01:47:24.632Z,17.10
2018-06-17T01:49:28.179Z,17.10
2018-06-17T01:51:31.647Z,17.10
2018-06-17T01:53:35.318Z,17.00
2018-06-17T01:55:38.819Z,17.00
2018-06-17T01:57:42.288Z,17.00
2018-06-17T01:59:45.825Z,17.00
2018-06-17T02:01:49.409Z,17.00
2018-06-17T02:03:58.325Z,17.10
2018-06-17T02:06:07.087Z,17.20
2018-06-17T02:08:15.802Z,17.20
2018-06-17T02:10:24.457Z,17.20
2018-06-17T02:12:27.943Z,17.30
2018-06-17T02:14:36.859Z,17.20
2018-06-17T02:16:40.948Z,17.30
2018-06-17T02:20:47.612Z,17.30
2018-06-17T02:22:51.091Z,17.30
2018-06-17T02:24:54.679Z,17.40
2018-06-17T02:26:58.247Z,17.40
2018-06-17T02:29:01.720Z,17.40
2018-06-17T02:31:05.304Z,17.50
2018-06-17T02:33:08.785Z,17.50
2018-06-17T02:35:12.379Z,17.50
2018-06-17T02:37:15.896Z,17.50
2018-06-17T02:39:19.391Z,17.50
2018-06-17T02:41:22.905Z,17.50
2018-06-17T02:43:26.412Z,17.40
2018-06-17T02:45:35.210Z,17.40
2018-06-17T02:47:43.960Z,17.40
2018-06-17T02:49:48.586Z,17.30
2018-06-17T02:51:57.261Z,17.30
2018-06-17T02:54:06.038Z,17.20
2018-06-17T02:56:09.526Z,17.20
2018-06-17T02:58:12.987Z,17.10
2018-06-17T03:00:16.482Z,17.10
2018-06-17T03:02:20.144Z,17.20
2018-06-17T03:04:23.722Z,17.10
2018-06-17T03:06:27.211Z,17.10
2018-06-17T03:08:30.770Z,17.10
2018-06-17T03:10:34.292Z,17.10
2018-06-17T03:12:37.815Z,17.10
2018-06-17T03:14:41.356Z,17.10
2018-06-17T03:16:44.883Z,17.00
2018-06-17T03:18:48.354Z,17.00
2018-06-17T03:20:51.847Z,17.00
2018-06-17T03:22:55.608Z,17.10
2018-06-17T03:25:04.408Z,17.20
2018-06-17T03:27:13.056Z,17.10
2018-06-17T03:29:21.710Z,17.10
2018-06-17T03:31:25.261Z,17.10
2018-06-17T03:33:52.063Z,17.10
2018-06-17T03:36:01.194Z,17.10
2018-06-17T03:38:04.700Z,17.10
2018-06-17T03:40:08.235Z,17.10
2018-06-17T03:42:11.695Z,17.20
2018-06-17T03:44:15.173Z,17.20
2018-06-17T03:46:18.672Z,17.20
2018-06-17T03:48:22.193Z,17.20
2018-06-17T03:50:25.714Z,17.30
2018-06-17T03:52:29.242Z,17.20
2018-06-17T03:54:32.709Z,17.20
2018-06-17T03:56:36.379Z,17.10
2018-06-17T03:58:39.879Z,17.10
2018-06-17T04:00:43.471Z,17.00
2018-06-17T04:02:46.967Z,17.10
2018-06-17T04:04:55.682Z,17.10
2018-06-17T04:06:59.148Z,17.10
2018-06-17T04:09:02.707Z,17.00
2018-06-17T04:13:09.473Z,17.00
2018-06-17T04:15:13.076Z,17.00
2018-06-17T04:17:16.588Z,17.00
2018-06-17T04:19:20.111Z,17.00
2018-06-17T04:21:23.648Z,17.10
2018-06-17T04:23:27.146Z,17.10
2018-06-17T04:25:30.705Z,17.10
2018-06-17T04:27:34.161Z,17.10
2018-06-17T04:29:37.634Z,17.10
2018-06-17T04:31:41.120Z,17.10
2018-06-17T04:33:44.580Z,17.10
2018-06-17T04:35:48.146Z,17.20
2018-06-17T04:37:51.828Z,17.20
2018-06-17T04:41:58.484Z,17.20
2018-06-17T04:44:02.012Z,17.20
2018-06-17T04:46:05.543Z,17.30
2018-06-17T04:48:09.063Z,17.30
2018-06-17T04:50:12.616Z,17.50
2018-06-17T04:52:16.096Z,17.50
2018-06-17T04:54:19.603Z,17.50
2018-06-17T04:56:23.155Z,17.50
2018-06-17T04:58:26.679Z,17.50
2018-06-17T05:00:30.379Z,17.50
2018-06-17T05:02:33.836Z,17.50
2018-06-17T05:04:37.357Z,17.60
2018-06-17T05:06:40.836Z,17.70
2018-06-17T05:08:44.311Z,17.70
2018-06-17T05:10:47.875Z,17.70
2018-06-17T05:12:51.373Z,17.80
2018-06-17T05:14:54.830Z,17.80
2018-06-17T05:16:58.411Z,17.80
2018-06-17T05:19:01.935Z,17.80
2018-06-17T05:21:05.520Z,17.70
2018-06-17T05:23:08.996Z,17.90
2018-06-17T05:25:12.491Z,17.90
2018-06-17T05:27:16.017Z,18.00
2018-06-17T05:29:19.495Z,17.90
2018-06-17T05:31:23.016Z,18.00
2018-06-17T05:33:26.753Z,18.10
2018-06-17T05:35:30.260Z,18.10
2018-06-17T05:37:33.819Z,18.30
2018-06-17T05:39:37.291Z,18.30
2018-06-17T05:41:40.817Z,18.40
2018-06-17T05:43:44.410Z,18.40
2018-06-17T05:45:47.889Z,18.50
2018-06-17T05:47:51.371Z,18.50
2018-06-17T05:49:54.838Z,18.40
2018-06-17T05:51:58.338Z,18.30
2018-06-17T05:54:01.905Z,18.40
2018-06-17T05:56:05.909Z,18.40
2018-06-17T05:58:09.440Z,18.40
2018-06-17T06:00:12.915Z,18.40
2018-06-17T06:02:16.404Z,18.40
2018-06-17T06:04:19.924Z,18.40
2018-06-17T06:06:23.472Z,18.50
2018-06-17T06:08:27.005Z,18.60
2018-06-17T06:10:30.529Z,18.60
2018-06-17T06:12:34.008Z,18.60
2018-06-17T06:14:37.556Z,18.70
2018-06-17T06:16:41.192Z,18.80
2018-06-17T06:18:44.671Z,18.90
2018-06-17T06:20:48.707Z,19.00
2018-06-17T06:22:52.342Z,19.10
2018-06-17T06:24:55.887Z,19.00
2018-06-17T06:26:59.367Z,19.10
2018-06-17T06:29:02.835Z,19.10
2018-06-17T06:31:06.404Z,19.00
2018-06-17T06:33:09.934Z,19.00
2018-06-17T06:35:13.410Z,19.00
2018-06-17T06:37:16.964Z,19.20
2018-06-17T06:39:20.472Z,19.20
2018-06-17T06:41:23.963Z,19.30
2018-06-17T06:43:27.496Z,19.30
2018-06-17T06:45:31.013Z,19.50
2018-06-17T06:47:34.579Z,19.60
2018-06-17T06:49:38.047Z,19.70
2018-06-17T06:51:41.541Z,19.70
2018-06-17T06:53:45.166Z,19.70
2018-06-17T06:55:48.788Z,19.70
2018-06-17T06:57:52.340Z,19.70
2018-06-17T06:59:56.011Z,19.60
2018-06-17T07:02:10.646Z,19.60
2018-06-17T07:04:25.355Z,19.70
2018-06-17T07:06:39.943Z,19.70
2018-06-17T07:08:54.638Z,19.80
2018-06-17T07:10:58.135Z,19.70
2018-06-17T07:13:01.764Z,19.50
2018-06-17T07:15:05.280Z,19.60
2018-06-17T07:17:20.095Z,19.60
2018-06-17T07:19:23.597Z,19.60
2018-06-17T07:21:27.066Z,19.40
2018-06-17T07:23:30.784Z,19.20
2018-06-17T07:26:45.807Z,19.20
2018-06-17T07:29:00.520Z,19.20
2018-06-17T07:31:04.035Z,19.30
2018-06-17T07:33:07.568Z,19.40
2018-06-17T07:35:11.092Z,19.50
2018-06-17T07:37:14.675Z,19.60
2018-06-17T07:41:34.908Z,19.50
2018-06-17T07:43:38.375Z,19.60
2018-06-17T07:45:42.200Z,19.50
2018-06-17T07:47:45.698Z,19.50
2018-06-17T07:50:00.614Z,19.50
2018-06-17T07:52:16.376Z,19.50
2018-06-17T07:54:19.846Z,19.50
2018-06-17T07:56:23.334Z,19.50
2018-06-17T07:58:26.848Z,19.30
2018-06-17T08:00:30.372Z,19.40
2018-06-17T08:04:37.197Z,19.20
2018-06-17T08:06:40.679Z,18.90
2018-06-17T08:08:44.241Z,18.90
2018-06-17T08:10:47.785Z,19.00
2018-06-17T08:12:51.220Z,19.10
2018-06-17T08:14:54.791Z,19.20
2018-06-17T08:16:58.629Z,19.50
2018-06-17T08:19:02.219Z,19.50
2018-06-17T08:21:05.761Z,19.50
2018-06-17T08:23:09.234Z,19.70
2018-06-17T08:27:15.869Z,19.80
2018-06-17T08:29:19.375Z,19.90
2018-06-17T08:31:22.962Z,20.00
2018-06-17T08:33:26.524Z,20.20
2018-06-17T08:35:29.987Z,20.10
2018-06-17T08:37:33.519Z,20.20
2018-06-17T08:39:37.020Z,20.30
2018-06-17T08:41:40.772Z,20.30
2018-06-17T08:43:44.314Z,20.30
2018-06-17T08:45:48.000Z,20.40
2018-06-17T08:47:51.517Z,20.60
2018-06-17T08:49:55.003Z,20.60
2018-06-17T08:51:58.526Z,20.50
2018-06-17T08:54:01.994Z,20.20
2018-06-17T08:56:05.567Z,20.20
2018-06-17T08:58:09.091Z,20.20
2018-06-17T09:00:12.702Z,20.10
2018-06-17T09:02:16.312Z,20.00
2018-06-17T09:04:19.806Z,20.10
2018-06-17T09:06:23.757Z,20.10
2018-06-17T09:08:27.442Z,20.10
2018-06-17T09:12:34.903Z,20.00
2018-06-17T09:14:38.374Z,19.90
2018-06-17T09:16:41.927Z,19.90
2018-06-17T09:18:45.613Z,19.80
2018-06-17T09:20:49.123Z,19.80
2018-06-17T09:22:52.598Z,19.80
2018-06-17T09:24:56.158Z,19.80
2018-06-17T09:26:59.659Z,19.90
2018-06-17T09:29:03.178Z,20.00
2018-06-17T09:31:06.843Z,20.10
2018-06-17T09:33:10.416Z,20.20
2018-06-17T09:37:17.224Z,19.90
2018-06-17T09:39:20.747Z,19.90
2018-06-17T09:41:24.255Z,19.90
2018-06-17T09:43:27.931Z,19.80
2018-06-17T09:45:31.531Z,19.60
2018-06-17T09:47:35.147Z,19.70
2018-06-17T09:49:38.661Z,19.70
2018-06-17T09:51:42.167Z,19.70
2018-06-17T09:53:45.754Z,19.80
2018-06-17T09:55:49.314Z,19.80
2018-06-17T09:57:52.817Z,20.00
2018-06-17T09:59:56.281Z,20.00
2018-06-17T10:01:59.783Z,20.30
2018-06-17T10:04:03.335Z,20.40
2018-06-17T10:06:06.848Z,20.50
2018-06-17T10:08:10.358Z,20.60
2018-06-17T10:12:20.199Z,20.70
2018-06-17T10:14:23.678Z,20.90
2018-06-17T10:16:27.233Z,20.90
2018-06-17T10:18:31.080Z,20.90
2018-06-17T10:20:34.704Z,20.90
2018-06-17T10:22:38.232Z,21.00
2018-06-17T10:24:41.716Z,20.90
2018-06-17T10:26:45.430Z,20.90
2018-06-17T10:28:49.043Z,20.90
2018-06-17T10:30:53.338Z,21.00
2018-06-17T10:32:56.939Z,21.10
2018-06-17T10:35:00.607Z,21.30
2018-06-17T10:37:04.213Z,21.30
2018-06-17T10:39:08.277Z,21.30
2018-06-17T10:41:11.751Z,21.30
2018-06-17T10:43:17.553Z,21.30
2018-06-17T10:45:21.033Z,21.30
2018-06-17T10:47:24.555Z,21.20
2018-06-17T10:49:28.101Z,21.00
2018-06-17T10:51:31.619Z,21.10
2018-06-17T10:53:35.096Z,21.20
2018-06-17T10:55:38.644Z,21.40
2018-06-17T10:57:42.563Z,21.60
2018-06-17T10:59:46.060Z,21.60
2018-06-17T11:01:49.539Z,21.60
2018-06-17T11:03:53.044Z,21.50
2018-06-17T11:05:56.625Z,21.50
2018-06-17T11:08:00.198Z,21.60
2018-06-17T11:10:04.671Z,21.70
2018-06-17T11:12:08.211Z,21.90
2018-06-17T11:16:14.959Z,22.20
2018-06-17T11:18:18.454Z,22.30
2018-06-17T11:20:22.069Z,22.20
2018-06-17T11:22:25.640Z,22.20
2018-06-17T11:24:29.191Z,22.20
2018-06-17T11:26:32.693Z,22.10
2018-06-17T11:28:36.302Z,22.10
2018-06-17T11:32:43.031Z,22.30
2018-06-17T11:34:46.537Z,22.20
2018-06-17T11:36:50.058Z,22.30
2018-06-17T11:38:53.594Z,22.20
2018-06-17T11:40:57.053Z,22.00
2018-06-17T11:43:00.615Z,22.00
2018-06-17T11:45:04.214Z,22.10
2018-06-17T11:47:07.727Z,22.00
2018-06-17T11:49:11.671Z,22.00
2018-06-17T11:51:15.166Z,21.90
2018-06-17T11:53:18.689Z,22.10
2018-06-17T11:55:22.180Z,22.10
2018-06-17T11:57:25.791Z,22.10
2018-06-17T11:59:29.259Z,22.10
2018-06-17T12:01:32.930Z,22.20
2018-06-17T12:05:39.804Z,22.40
2018-06-17T12:07:43.320Z,22.40
2018-06-17T12:11:50.179Z,22.50
2018-06-17T12:13:53.765Z,22.60
2018-06-17T12:15:57.247Z,22.60
2018-06-17T12:18:00.879Z,22.70
2018-06-17T12:20:04.436Z,22.90
2018-06-17T12:22:08.010Z,23.00
2018-06-17T12:24:11.543Z,23.00
2018-06-17T12:26:15.067Z,22.70
2018-06-17T12:28:18.570Z,22.60
2018-06-17T12:30:22.060Z,22.60
2018-06-17T12:32:25.819Z,22.70
2018-06-17T12:34:29.383Z,22.80
2018-06-17T12:36:32.950Z,22.80
2018-06-17T12:38:36.522Z,22.80
2018-06-17T12:40:40.048Z,22.60
2018-06-17T12:42:43.510Z,22.60
2018-06-17T12:44:47.019Z,22.60
2018-06-17T12:46:50.591Z,22.60
2018-06-17T12:48:54.503Z,22.30
2018-06-17T12:50:58.029Z,22.30
2018-06-17T12:53:01.655Z,22.30
2018-06-17T12:55:05.424Z,22.20
2018-06-17T12:57:08.988Z,22.20
2018-06-17T12:59:12.620Z,22.20
2018-06-17T13:01:16.131Z,22.20
2018-06-17T13:05:22.878Z,22.40
2018-06-17T13:07:26.363Z,22.40
2018-06-17T13:09:29.910Z,22.60
2018-06-17T13:11:33.418Z,22.50
2018-06-17T13:13:37.020Z,22.50
2018-06-17T13:15:40.615Z,22.60
2018-06-17T13:17:44.155Z,22.50
2018-06-17T13:19:47.703Z,22.50
2018-06-17T13:21:51.197Z,22.70
2018-06-17T13:25:57.870Z,23.00
2018-06-17T13:28:01.343Z,23.10
2018-06-17T13:30:05.093Z,23.10
2018-06-17T13:32:08.583Z,22.90
2018-06-17T13:34:12.059Z,22.70
2018-06-17T13:38:18.858Z,22.70
2018-06-17T13:40:22.726Z,22.70
2018-06-17T13:42:26.243Z,22.90
2018-06-17T13:44:29.878Z,23.00
2018-06-17T13:46:33.532Z,23.20
2018-06-17T13:48:37.099Z,23.20
2018-06-17T13:50:40.640Z,23.10
2018-06-17T13:52:44.206Z,23.10
2018-06-17T13:54:47.691Z,23.00
2018-06-17T13:56:51.173Z,22.80
2018-06-17T13:58:54.716Z,22.90
2018-06-17T14:00:58.259Z,23.10
2018-06-17T14:03:01.817Z,23.10
2018-06-17T14:05:05.728Z,23.20
2018-06-17T14:07:09.282Z,23.20
2018-06-17T14:09:12.902Z,23.30
2018-06-17T14:11:16.430Z,23.30
2018-06-17T14:13:19.979Z,23.20
2018-06-17T14:15:23.476Z,23.00
2018-06-17T14:17:26.994Z,22.60
2018-06-17T14:19:30.549Z,22.40
2018-06-17T14:21:34.060Z,22.50
2018-06-17T14:23:37.578Z,22.50
2018-06-17T14:25:41.160Z,22.60
2018-06-17T14:27:44.640Z,22.60
2018-06-17T14:29:48.226Z,22.70
2018-06-17T14:31:51.735Z,22.60
2018-06-17T14:33:55.588Z,22.50
2018-06-17T14:35:59.064Z,22.50
2018-06-17T14:40:06.025Z,22.50
2018-06-17T14:42:14.778Z,22.50
2018-06-17T14:46:32.111Z,22.60
2018-06-17T14:48:40.940Z,22.40
2018-06-17T14:50:49.786Z,22.40
2018-06-17T14:53:03.175Z,22.50
2018-06-17T14:55:06.760Z,22.60
2018-06-17T14:57:10.297Z,22.50
2018-06-17T14:59:13.855Z,22.60
2018-06-17T15:01:17.524Z,22.50
2018-06-17T15:03:21.090Z,22.40
2018-06-17T15:05:24.674Z,22.40
2018-06-17T15:07:28.189Z,22.20
2018-06-17T15:09:31.874Z,22.10
2018-06-17T15:11:35.377Z,22.20
2018-06-17T15:13:38.879Z,22.30
2018-06-17T15:17:45.588Z,22.60
2018-06-17T15:19:49.235Z,22.70
2018-06-17T15:21:52.778Z,22.70
2018-06-17T15:23:56.410Z,22.70
2018-06-17T15:25:59.909Z,22.70
2018-06-17T15:28:03.415Z,22.80
2018-06-17T15:32:15.717Z,22.60
2018-06-17T15:36:33.368Z,22.60
2018-06-17T15:38:42.130Z,22.60
2018-06-17T15:40:50.932Z,22.30
2018-06-17T15:42:54.463Z,22.10
2018-06-17T15:44:57.992Z,22.10
2018-06-17T15:47:01.499Z,22.10
2018-06-17T15:49:05.025Z,21.90
2018-06-17T15:51:08.631Z,21.90
2018-06-17T15:53:12.133Z,21.80
2018-06-17T15:55:15.650Z,21.80
2018-06-17T15:57:19.152Z,21.90
2018-06-17T15:59:22.643Z,22.00
2018-06-17T16:01:26.176Z,22.00
2018-06-17T16:03:29.629Z,22.10
2018-06-17T16:05:33.119Z,22.00
2018-06-17T16:07:36.652Z,22.00
2018-06-17T16:11:48.619Z,22.10
2018-06-17T16:13:57.355Z,22.00
2018-06-17T16:16:06.139Z,21.90
2018-06-17T16:18:14.736Z,21.80
2018-06-17T16:20:23.525Z,21.70
2018-06-17T16:22:27.092Z,21.60
2018-06-17T16:24:30.640Z,21.60
2018-06-17T16:26:34.147Z,21.50
2018-06-17T16:28:37.728Z,21.50
2018-06-17T16:30:41.248Z,21.40
2018-06-17T16:34:54.473Z,21.40
2018-06-17T16:36:57.963Z,21.30
2018-06-17T16:39:01.453Z,21.30
2018-06-17T16:41:05.046Z,21.30
2018-06-17T16:43:08.532Z,21.00
2018-06-17T16:45:12.027Z,21.00
2018-06-17T16:47:15.502Z,21.20
2018-06-17T16:49:18.995Z,21.30
2018-06-17T16:51:27.779Z,21.20
2018-06-17T16:53:36.463Z,21.20
2018-06-17T16:55:45.415Z,21.10
2018-06-17T16:57:54.191Z,21.10
2018-06-17T17:00:00.608Z,21.10
2018-06-17T17:02:04.109Z,21.10
2018-06-17T17:04:07.658Z,21.10
2018-06-17T17:06:11.189Z,21.10
2018-06-17T17:08:14.743Z,21.10
2018-06-17T17:10:18.350Z,21.10
2018-06-17T17:12:21.884Z,21.00
2018-06-17T17:14:25.359Z,20.90
2018-06-17T17:16:28.928Z,21.00
2018-06-17T17:18:32.564Z,21.00
2018-06-17T17:20:36.050Z,21.10
2018-06-17T17:22:39.623Z,21.00
2018-06-17T17:24:43.100Z,21.10
2018-06-17T17:28:49.755Z,21.20
2018-06-17T17:30:53.246Z,21.10
2018-06-17T17:33:02.061Z,21.20
2018-06-17T17:35:10.947Z,21.10
2018-06-17T17:37:19.750Z,21.20
2018-06-17T17:39:28.588Z,21.30
2018-06-17T17:41:32.152Z,21.30
2018-06-17T17:46:44.682Z,21.10
2018-06-17T17:48:48.183Z,21.10
2018-06-17T17:50:51.697Z,21.10
2018-06-17T17:52:55.211Z,21.10
2018-06-17T17:54:58.766Z,21.10
2018-06-17T17:57:02.338Z,21.00
2018-06-17T17:59:05.822Z,21.10
2018-06-17T18:01:09.352Z,21.10
2018-06-17T18:03:13.035Z,21.10
2018-06-17T18:05:16.577Z,21.10
2018-06-17T18:07:20.095Z,21.10
2018-06-17T18:09:23.585Z,21.00
2018-06-17T18:11:27.075Z,21.10
2018-06-17T18:13:30.673Z,21.00
2018-06-17T18:15:34.164Z,20.90
2018-06-17T18:17:37.683Z,20.80
2018-06-17T18:19:47.687Z,20.80
2018-06-17T18:23:54.352Z,20.70
2018-06-17T18:26:03.103Z,20.70
2018-06-17T18:28:11.780Z,20.50
2018-06-17T18:30:20.476Z,20.50
2018-06-17T18:32:29.156Z,20.30
2018-06-17T18:34:37.835Z,20.20
2018-06-17T18:36:41.552Z,20.20
2018-06-17T18:38:46.505Z,20.20
2018-06-17T18:40:50.256Z,20.20
2018-06-17T18:42:53.825Z,20.10
2018-06-17T18:44:57.567Z,20.00
2018-06-17T18:47:01.184Z,20.00
2018-06-17T18:49:04.730Z,20.00
2018-06-17T18:51:08.204Z,20.10
2018-06-17T18:53:11.810Z,20.10
2018-06-17T18:55:15.389Z,20.10
2018-06-17T18:57:18.804Z,20.00
2018-06-17T18:59:22.338Z,20.00
2018-06-17T19:01:25.922Z,20.00
2018-06-17T19:03:29.440Z,20.00
2018-06-17T19:05:32.911Z,20.00
2018-06-17T19:07:36.403Z,19.90
2018-06-17T19:09:45.299Z,19.80
2018-06-17T19:11:54.090Z,19.90
2018-06-17T19:15:00.478Z,19.90
2018-06-17T19:17:09.145Z,19.90
2018-06-17T19:19:12.691Z,19.90
2018-06-17T19:21:16.307Z,19.80
2018-06-17T19:23:19.827Z,19.70
2018-06-17T19:25:23.840Z,19.70
2018-06-17T19:27:27.333Z,19.70
2018-06-17T19:29:30.901Z,19.70
2018-06-17T19:31:34.420Z,19.70
2018-06-17T19:33:37.947Z,19.80
2018-06-17T19:35:41.452Z,19.80
2018-06-17T19:37:45.052Z,19.80
2018-06-17T19:39:48.580Z,19.80
2018-06-17T19:41:52.097Z,19.80
2018-06-17T19:43:55.642Z,19.80
2018-06-17T19:45:59.181Z,19.80
2018-06-17T19:48:02.692Z,19.80
2018-06-17T19:50:11.905Z,19.80
2018-06-17T19:52:20.622Z,19.80
2018-06-17T19:54:29.405Z,19.80
2018-06-17T19:56:38.230Z,19.90
2018-06-17T19:58:50.768Z,19.80
2018-06-17T20:01:01.015Z,19.80
2018-06-17T20:03:05.180Z,19.80
2018-06-17T20:05:08.819Z,19.80
2018-06-17T20:07:12.326Z,19.90
2018-06-17T20:09:15.880Z,19.90
2018-06-17T20:11:20.292Z,19.90
2018-06-17T20:15:27.130Z,19.80
2018-06-17T20:17:30.747Z,19.80
2018-06-17T20:19:34.385Z,19.80
2018-06-17T20:21:37.916Z,19.80
2018-06-17T20:23:41.420Z,19.80
2018-06-17T20:25:44.992Z,19.80
2018-06-17T20:27:48.483Z,19.70
2018-06-17T20:29:52.172Z,19.70
2018-06-17T20:32:00.986Z,19.80
2018-06-17T20:34:09.651Z,19.80
2018-06-17T20:36:18.464Z,19.80
2018-06-17T20:38:27.187Z,19.70
2018-06-17T20:40:36.014Z,19.60
2018-06-17T20:42:44.824Z,19.60
2018-06-17T20:44:48.412Z,19.40
2018-06-17T20:46:51.944Z,19.40
2018-06-17T20:50:58.619Z,19.30
2018-06-17T20:53:02.147Z,19.20
2018-06-17T20:55:06.695Z,19.10
2018-06-17T20:57:10.320Z,19.10
2018-06-17T20:59:13.853Z,19.20
2018-06-17T21:03:20.597Z,19.20
2018-06-17T21:05:24.216Z,19.10
2018-06-17T21:07:33.984Z,19.20
2018-06-17T21:09:37.468Z,19.20
2018-06-17T21:11:41.049Z,19.20
2018-06-17T21:13:44.511Z,19.30
2018-06-17T21:15:48.018Z,19.30
2018-06-17T21:17:51.935Z,19.30
2018-06-17T21:20:02.033Z,19.30
2018-06-17T21:22:10.846Z,19.30
2018-06-17T21:24:19.546Z,19.30
2018-06-17T21:28:31.481Z,19.40
2018-06-17T21:30:35.017Z,19.40
2018-06-17T21:32:39.240Z,19.40
2018-06-17T21:34:42.754Z,19.40
2018-06-17T21:36:46.255Z,19.30
2018-06-17T21:38:49.756Z,19.30
2018-06-17T21:40:53.262Z,19.30
2018-06-17T21:42:56.750Z,19.30
2018-06-17T21:45:00.264Z,19.30
2018-06-17T21:47:03.750Z,19.20
2018-06-17T21:49:07.350Z,19.10
2018-06-17T21:51:10.907Z,19.10
2018-06-17T21:53:14.455Z,19.10
2018-06-17T21:55:17.983Z,19.10
2018-06-17T21:57:21.489Z,19.00
2018-06-17T21:59:25.009Z,19.00
2018-06-17T22:03:31.808Z,19.00
2018-06-17T22:05:35.280Z,19.00
2018-06-17T22:07:44.126Z,19.00
2018-06-17T22:09:52.979Z,19.00
2018-06-17T22:12:01.843Z,19.00
2018-06-17T22:15:11.139Z,19.00
2018-06-17T22:17:19.742Z,19.00
2018-06-17T22:19:23.378Z,19.00
2018-06-17T22:21:26.851Z,19.00
2018-06-17T22:23:30.487Z,18.90
2018-06-17T22:25:34.024Z,18.90
2018-06-17T22:27:37.496Z,19.00
2018-06-17T22:29:41.003Z,19.00
2018-06-17T22:31:44.616Z,18.90
2018-06-17T22:33:48.145Z,18.90
2018-06-17T22:35:51.694Z,18.90
2018-06-17T22:37:55.191Z,18.90
2018-06-17T22:39:58.724Z,18.80
2018-06-17T22:42:02.222Z,18.80
2018-06-17T22:44:05.812Z,18.80
2018-06-17T22:46:09.425Z,18.70
2018-06-17T22:48:19.267Z,18.70
2018-06-17T22:50:22.753Z,18.70
2018-06-17T22:52:26.293Z,18.70
2018-06-17T22:54:40.991Z,18.60
2018-06-17T22:56:49.783Z,18.60
2018-06-17T22:58:58.576Z,18.50
2018-06-17T23:03:16.073Z,18.40
2018-06-17T23:05:24.859Z,18.30
2018-06-17T23:07:33.622Z,18.30
2018-06-17T23:09:39.231Z,18.40
2018-06-17T23:11:43.704Z,18.40
2018-06-17T23:13:47.289Z,18.30
2018-06-17T23:15:50.965Z,18.20
2018-06-17T23:17:54.451Z,18.20
2018-06-17T23:19:58.043Z,18.20
2018-06-17T23:22:01.631Z,18.10
2018-06-17T23:24:05.222Z,18.00
2018-06-17T23:26:08.758Z,18.00
2018-06-17T23:28:12.334Z,18.00
2018-06-17T23:30:15.967Z,17.90
2018-06-17T23:32:19.506Z,17.80
2018-06-17T23:34:22.963Z,17.80
2018-06-17T23:36:26.639Z,17.80
2018-06-17T23:38:30.247Z,17.80
2018-06-17T23:40:33.709Z,17.70
2018-06-17T23:42:40.260Z,17.70
2018-06-17T23:44:44.019Z,17.70
2018-06-17T23:46:52.764Z,17.70
2018-06-17T23:49:01.498Z,17.80
2018-06-17T23:51:10.256Z,17.90
2018-06-17T23:54:21.683Z,17.90
2018-06-17T23:56:25.302Z,17.80
2018-06-17T23:58:28.767Z,17.80
